LNI980 WAAA-WADD
Flight info
| Callsign | LNI980 |
|---|---|
| Flight time | 1h 12m |
| Altitude | 40000 |
| Route | LIPOT W41 PEDET |
| Aircraft | A339/H-SADE1E2E3GHIJ3J5M1P2RWXY/LB2D1 |
Departure
| Time | 2026-04-28 13:40 |
|---|---|
| Airport | Sultan Hasanuddin International Airport (WAAA) |
Arrival
| Time | 2026-04-28 14:53 |
|---|---|
| Airport | Denpasar I Gusti Ngurah Rai International Airport (WADD) |
| Time | Latitude | Longitude | Altitude | Speed | Heading |
|---|---|---|---|---|---|
| 2026-04-28 13:15 | -5.07814 | 119.54715 | 60 ft | 0 kts | 300° |
| 2026-04-28 13:16 | -5.07756 | 119.54745 | 61 ft | 0 kts | 300° |
| 2026-04-28 13:30 | -5.07756 | 119.54746 | 61 ft | 1 kts | 300° |
| 2026-04-28 13:30 | -5.07761 | 119.54759 | 61 ft | 2 kts | 274° |
| 2026-04-28 13:30 | -5.07760 | 119.54775 | 61 ft | 2 kts | 252° |
| 2026-04-28 13:31 | -5.07742 | 119.54798 | 62 ft | 2 kts | 207° |
| 2026-04-28 13:31 | -5.07729 | 119.54804 | 62 ft | 2 kts | 208° |
| 2026-04-28 13:31 | -5.07717 | 119.54811 | 62 ft | 0 kts | 211° |
| 2026-04-28 13:34 | -5.07721 | 119.54809 | 62 ft | 0 kts | 211° |
| 2026-04-28 13:34 | -5.07735 | 119.54801 | 62 ft | 6 kts | 206° |
| 2026-04-28 13:35 | -5.07812 | 119.54777 | 61 ft | 15 kts | 198° |
| 2026-04-28 13:35 | -5.07942 | 119.54748 | 61 ft | 18 kts | 178° |
| 2026-04-28 13:35 | -5.08036 | 119.54813 | 62 ft | 15 kts | 124° |
| 2026-04-28 13:35 | -5.08100 | 119.54842 | 62 ft | 10 kts | 197° |
| 2026-04-28 13:36 | -5.08170 | 119.54804 | 62 ft | 11 kts | 209° |
| 2026-04-28 13:36 | -5.08252 | 119.54758 | 61 ft | 14 kts | 210° |
| 2026-04-28 13:36 | -5.08339 | 119.54707 | 61 ft | 14 kts | 211° |
| 2026-04-28 13:36 | -5.08427 | 119.54654 | 62 ft | 14 kts | 210° |
| 2026-04-28 13:37 | -5.08516 | 119.54604 | 63 ft | 14 kts | 210° |
| 2026-04-28 13:37 | -5.08603 | 119.54552 | 64 ft | 14 kts | 211° |
| 2026-04-28 13:37 | -5.08690 | 119.54501 | 64 ft | 14 kts | 211° |
| 2026-04-28 13:37 | -5.08778 | 119.54451 | 64 ft | 14 kts | 210° |
| 2026-04-28 13:38 | -5.08868 | 119.54398 | 64 ft | 14 kts | 212° |
| 2026-04-28 13:38 | -5.08961 | 119.54346 | 65 ft | 14 kts | 210° |
| 2026-04-28 13:38 | -5.09054 | 119.54291 | 64 ft | 15 kts | 206° |
| 2026-04-28 13:38 | -5.09162 | 119.54313 | 62 ft | 16 kts | 129° |
| 2026-04-28 13:39 | -5.09185 | 119.54407 | 60 ft | 9 kts | 58° |
| 2026-04-28 13:39 | -5.09134 | 119.54452 | 60 ft | 9 kts | 30° |
| 2026-04-28 13:39 | -5.09117 | 119.54462 | 60 ft | 14 kts | 30° |
| 2026-04-28 13:39 | -5.08849 | 119.54616 | 61 ft | 72 kts | 30° |
| 2026-04-28 13:40 | -5.08257 | 119.54953 | 60 ft | 118 kts | 32° |
| 2026-04-28 13:40 | -5.07376 | 119.55456 | 99 ft | 170 kts | 28° |
| 2026-04-28 13:40 | -5.06320 | 119.56067 | 699 ft | 175 kts | 29° |
| 2026-04-28 13:40 | -5.05287 | 119.56653 | 1519 ft | 170 kts | 33° |
| 2026-04-28 13:41 | -5.04303 | 119.57261 | 2132 ft | 168 kts | 35° |
| 2026-04-28 13:41 | -5.03218 | 119.57821 | 2384 ft | 183 kts | 16° |
| 2026-04-28 13:41 | -5.01909 | 119.57848 | 2697 ft | 196 kts | 356° |
| 2026-04-28 13:41 | -5.00528 | 119.57697 | 3163 ft | 199 kts | 356° |
| 2026-04-28 13:42 | -4.99197 | 119.57312 | 3530 ft | 210 kts | 324° |
| 2026-04-28 13:42 | -4.98011 | 119.56371 | 3871 ft | 222 kts | 324° |
| 2026-04-28 13:42 | -4.96777 | 119.55334 | 4150 ft | 240 kts | 313° |
| 2026-04-28 13:42 | -4.95853 | 119.53888 | 4423 ft | 258 kts | 289° |
| 2026-04-28 13:43 | -4.95613 | 119.52062 | 4739 ft | 273 kts | 271° |
| 2026-04-28 13:43 | -4.95603 | 119.50123 | 5291 ft | 279 kts | 271° |
| 2026-04-28 13:43 | -4.95587 | 119.48184 | 5936 ft | 281 kts | 272° |
| 2026-04-28 13:43 | -4.95557 | 119.46217 | 6575 ft | 283 kts | 271° |
| 2026-04-28 13:44 | -4.95519 | 119.44222 | 7184 ft | 285 kts | 272° |
| 2026-04-28 13:44 | -4.95478 | 119.42248 | 7778 ft | 288 kts | 272° |
| 2026-04-28 13:44 | -4.95432 | 119.40215 | 8351 ft | 292 kts | 273° |
| 2026-04-28 13:44 | -4.95383 | 119.38178 | 8935 ft | 294 kts | 272° |
| 2026-04-28 13:45 | -4.95336 | 119.36142 | 9508 ft | 297 kts | 272° |
| 2026-04-28 13:45 | -4.95288 | 119.34066 | 10071 ft | 300 kts | 272° |
| 2026-04-28 13:45 | -4.95238 | 119.31943 | 10430 ft | 312 kts | 272° |
| 2026-04-28 13:45 | -4.95181 | 119.29733 | 10701 ft | 326 kts | 272° |
| 2026-04-28 13:46 | -4.95122 | 119.27387 | 10961 ft | 341 kts | 272° |
| 2026-04-28 13:46 | -4.95062 | 119.24995 | 11347 ft | 350 kts | 272° |
| 2026-04-28 13:46 | -4.95001 | 119.22521 | 11904 ft | 353 kts | 272° |
| 2026-04-28 13:46 | -4.94941 | 119.20063 | 12470 ft | 356 kts | 272° |
| 2026-04-28 13:47 | -4.94879 | 119.17560 | 13020 ft | 360 kts | 272° |
| 2026-04-28 13:47 | -4.94816 | 119.15041 | 13523 ft | 364 kts | 272° |
| 2026-04-28 13:47 | -4.94751 | 119.12463 | 13996 ft | 368 kts | 272° |
| 2026-04-28 13:47 | -4.94685 | 119.09893 | 14471 ft | 371 kts | 272° |
| 2026-04-28 13:48 | -4.94618 | 119.07276 | 14959 ft | 376 kts | 272° |
| 2026-04-28 13:48 | -4.94561 | 119.04647 | 15425 ft | 381 kts | 270° |
| 2026-04-28 13:48 | -4.95044 | 119.02039 | 15881 ft | 387 kts | 247° |
| 2026-04-28 13:48 | -4.96572 | 118.99828 | 16342 ft | 390 kts | 222° |
| 2026-04-28 13:49 | -4.98709 | 118.98144 | 16843 ft | 393 kts | 214° |
| 2026-04-28 13:49 | -5.00964 | 118.96561 | 17316 ft | 396 kts | 214° |
| 2026-04-28 13:49 | -5.03220 | 118.94948 | 17784 ft | 400 kts | 215° |
| 2026-04-28 13:49 | -5.05477 | 118.93274 | 18253 ft | 404 kts | 216° |
| 2026-04-28 13:50 | -5.07719 | 118.91562 | 18717 ft | 407 kts | 216° |
| 2026-04-28 13:50 | -5.09937 | 118.89835 | 19178 ft | 410 kts | 217° |
| 2026-04-28 13:50 | -5.12218 | 118.88040 | 19649 ft | 412 kts | 217° |
| 2026-04-28 13:50 | -5.14455 | 118.86267 | 20108 ft | 414 kts | 217° |
| 2026-04-28 13:51 | -5.16719 | 118.84464 | 20570 ft | 416 kts | 217° |
| 2026-04-28 13:51 | -5.19007 | 118.82639 | 21035 ft | 417 kts | 217° |
| 2026-04-28 13:51 | -5.21278 | 118.80827 | 21494 ft | 418 kts | 217° |
| 2026-04-28 13:51 | -5.23552 | 118.79009 | 21952 ft | 419 kts | 217° |
| 2026-04-28 13:52 | -5.25827 | 118.77190 | 22418 ft | 419 kts | 217° |
| 2026-04-28 13:52 | -5.28103 | 118.75371 | 22898 ft | 419 kts | 217° |
| 2026-04-28 13:52 | -5.30407 | 118.73528 | 23385 ft | 419 kts | 217° |
| 2026-04-28 13:52 | -5.32687 | 118.71704 | 23873 ft | 418 kts | 217° |
| 2026-04-28 13:53 | -5.34957 | 118.69888 | 24362 ft | 418 kts | 217° |
| 2026-04-28 13:53 | -5.37222 | 118.68076 | 24851 ft | 417 kts | 217° |
| 2026-04-28 13:53 | -5.39467 | 118.66277 | 25338 ft | 416 kts | 217° |
| 2026-04-28 13:53 | -5.41736 | 118.64462 | 25832 ft | 414 kts | 217° |
| 2026-04-28 13:54 | -5.43983 | 118.62663 | 26324 ft | 412 kts | 217° |
| 2026-04-28 13:54 | -5.46224 | 118.60869 | 26818 ft | 410 kts | 217° |
| 2026-04-28 13:54 | -5.48449 | 118.59087 | 27311 ft | 408 kts | 217° |
| 2026-04-28 13:54 | -5.50651 | 118.57323 | 27803 ft | 405 kts | 217° |
| 2026-04-28 13:55 | -5.52845 | 118.55566 | 28297 ft | 402 kts | 217° |
| 2026-04-28 13:55 | -5.55050 | 118.53800 | 28801 ft | 399 kts | 217° |
| 2026-04-28 13:55 | -5.57209 | 118.52069 | 29305 ft | 396 kts | 217° |
| 2026-04-28 13:55 | -5.59348 | 118.50356 | 29746 ft | 394 kts | 217° |
| 2026-04-28 13:56 | -5.61491 | 118.48640 | 30053 ft | 396 kts | 217° |
| 2026-04-28 13:56 | -5.63653 | 118.46909 | 30345 ft | 398 kts | 217° |
| 2026-04-28 13:56 | -5.65827 | 118.45167 | 30636 ft | 400 kts | 217° |
| 2026-04-28 13:56 | -5.68007 | 118.43421 | 30923 ft | 402 kts | 217° |
| 2026-04-28 13:57 | -5.70204 | 118.41661 | 31219 ft | 404 kts | 217° |
| 2026-04-28 13:57 | -5.72413 | 118.39891 | 31509 ft | 406 kts | 217° |
| 2026-04-28 13:57 | -5.74600 | 118.38139 | 31791 ft | 407 kts | 217° |
| 2026-04-28 13:57 | -5.76826 | 118.36353 | 32055 ft | 410 kts | 216° |
| 2026-04-28 13:58 | -5.79084 | 118.34544 | 32329 ft | 412 kts | 216° |
| 2026-04-28 13:58 | -5.81331 | 118.32742 | 32577 ft | 414 kts | 217° |
| 2026-04-28 13:58 | -5.83589 | 118.30932 | 32850 ft | 417 kts | 217° |
| 2026-04-28 13:58 | -5.85867 | 118.29107 | 32990 ft | 422 kts | 217° |
| 2026-04-28 13:59 | -5.88177 | 118.27255 | 33134 ft | 427 kts | 217° |
| 2026-04-28 13:59 | -5.90521 | 118.25376 | 33281 ft | 433 kts | 217° |
| 2026-04-28 13:59 | -5.92899 | 118.23469 | 33428 ft | 438 kts | 217° |
| 2026-04-28 13:59 | -5.95271 | 118.21566 | 33575 ft | 443 kts | 217° |
| 2026-04-28 14:00 | -5.97726 | 118.19597 | 33725 ft | 448 kts | 217° |
| 2026-04-28 14:00 | -6.00157 | 118.17648 | 33799 ft | 455 kts | 217° |
| 2026-04-28 14:00 | -6.05201 | 118.13599 | 33804 ft | 471 kts | 217° |
| 2026-04-28 14:01 | -6.10420 | 118.09411 | 33804 ft | 486 kts | 217° |
| 2026-04-28 14:01 | -6.15793 | 118.05099 | 33804 ft | 501 kts | 217° |
| 2026-04-28 14:02 | -6.21322 | 118.00659 | 33803 ft | 511 kts | 217° |
| 2026-04-28 14:02 | -6.26884 | 117.96189 | 33804 ft | 512 kts | 217° |
| 2026-04-28 14:03 | -6.32449 | 117.91715 | 33804 ft | 513 kts | 217° |
| 2026-04-28 14:03 | -6.38030 | 117.87226 | 33805 ft | 513 kts | 217° |
| 2026-04-28 14:04 | -6.43597 | 117.82748 | 33805 ft | 513 kts | 217° |
| 2026-04-28 14:04 | -6.49187 | 117.78251 | 33805 ft | 512 kts | 217° |
| 2026-04-28 14:05 | -6.54733 | 117.73786 | 33805 ft | 512 kts | 217° |
| 2026-04-28 14:05 | -6.60311 | 117.69294 | 33805 ft | 512 kts | 217° |
| 2026-04-28 14:06 | -6.65804 | 117.64748 | 33804 ft | 512 kts | 220° |
| 2026-04-28 14:06 | -6.70888 | 117.59698 | 33805 ft | 514 kts | 227° |
| 2026-04-28 14:07 | -6.75544 | 117.54247 | 33806 ft | 513 kts | 229° |
| 2026-04-28 14:07 | -6.80147 | 117.48754 | 33805 ft | 513 kts | 229° |
| 2026-04-28 14:08 | -6.84764 | 117.43256 | 33805 ft | 513 kts | 229° |
| 2026-04-28 14:08 | -6.89358 | 117.37792 | 33805 ft | 513 kts | 229° |
| 2026-04-28 14:09 | -6.93970 | 117.32310 | 33804 ft | 512 kts | 229° |
| 2026-04-28 14:09 | -6.98563 | 117.26849 | 33805 ft | 512 kts | 229° |
| 2026-04-28 14:10 | -7.03185 | 117.21349 | 33805 ft | 512 kts | 229° |
| 2026-04-28 14:10 | -7.07765 | 117.15900 | 33800 ft | 512 kts | 229° |
| 2026-04-28 14:11 | -7.12394 | 117.10392 | 33793 ft | 512 kts | 229° |
| 2026-04-28 14:11 | -7.16987 | 117.04924 | 33788 ft | 511 kts | 229° |
| 2026-04-28 14:12 | -7.21585 | 116.99448 | 33786 ft | 511 kts | 229° |
| 2026-04-28 14:12 | -7.26157 | 116.94001 | 33793 ft | 511 kts | 229° |
| 2026-04-28 14:13 | -7.30752 | 116.88523 | 33801 ft | 511 kts | 229° |
| 2026-04-28 14:13 | -7.35335 | 116.83057 | 33804 ft | 511 kts | 229° |
| 2026-04-28 14:14 | -7.39903 | 116.77608 | 33396 ft | 505 kts | 229° |
| 2026-04-28 14:14 | -7.42165 | 116.74908 | 32593 ft | 507 kts | 229° |
| 2026-04-28 14:14 | -7.44489 | 116.72135 | 31629 ft | 513 kts | 229° |
| 2026-04-28 14:15 | -7.46804 | 116.69372 | 30748 ft | 516 kts | 229° |
| 2026-04-28 14:15 | -7.49098 | 116.66632 | 30111 ft | 514 kts | 229° |
| 2026-04-28 14:15 | -7.51397 | 116.63888 | 29542 ft | 510 kts | 229° |
| 2026-04-28 14:15 | -7.53748 | 116.61176 | 29003 ft | 506 kts | 227° |
| 2026-04-28 14:16 | -7.56056 | 116.58569 | 28485 ft | 502 kts | 227° |
| 2026-04-28 14:16 | -7.58401 | 116.55930 | 27989 ft | 498 kts | 227° |
| 2026-04-28 14:16 | -7.60687 | 116.53353 | 27495 ft | 494 kts | 227° |
| 2026-04-28 14:16 | -7.62960 | 116.50784 | 26981 ft | 491 kts | 228° |
| 2026-04-28 14:17 | -7.65222 | 116.48219 | 26474 ft | 487 kts | 228° |
| 2026-04-28 14:17 | -7.67469 | 116.45669 | 25976 ft | 484 kts | 228° |
| 2026-04-28 14:17 | -7.69698 | 116.43137 | 25481 ft | 480 kts | 228° |
| 2026-04-28 14:17 | -7.71891 | 116.40643 | 24997 ft | 477 kts | 228° |
| 2026-04-28 14:18 | -7.74071 | 116.38163 | 24532 ft | 473 kts | 228° |
| 2026-04-28 14:18 | -7.76269 | 116.35661 | 24050 ft | 469 kts | 228° |
| 2026-04-28 14:18 | -7.78414 | 116.33222 | 23565 ft | 466 kts | 229° |
| 2026-04-28 14:18 | -7.80553 | 116.30772 | 23075 ft | 462 kts | 231° |
| 2026-04-28 14:19 | -7.82246 | 116.28058 | 22644 ft | 452 kts | 247° |
| 2026-04-28 14:19 | -7.83117 | 116.25108 | 22619 ft | 436 kts | 262° |
| 2026-04-28 14:19 | -7.83356 | 116.22077 | 22674 ft | 437 kts | 268° |
| 2026-04-28 14:19 | -7.83480 | 116.18984 | 22697 ft | 437 kts | 269° |
| 2026-04-28 14:20 | -7.83592 | 116.15953 | 22720 ft | 437 kts | 269° |
| 2026-04-28 14:20 | -7.83715 | 116.12889 | 22741 ft | 437 kts | 268° |
| 2026-04-28 14:20 | -7.83846 | 116.09833 | 22757 ft | 437 kts | 268° |
| 2026-04-28 14:20 | -7.83984 | 116.06763 | 22729 ft | 438 kts | 268° |
| 2026-04-28 14:21 | -7.84125 | 116.03693 | 22347 ft | 438 kts | 268° |
| 2026-04-28 14:21 | -7.84269 | 116.00619 | 21934 ft | 436 kts | 268° |
| 2026-04-28 14:21 | -7.84412 | 115.97591 | 21552 ft | 432 kts | 268° |
| 2026-04-28 14:21 | -7.84556 | 115.94541 | 21172 ft | 429 kts | 268° |
| 2026-04-28 14:22 | -7.84698 | 115.91527 | 20809 ft | 445 kts | 268° |
| 2026-04-28 14:22 | -7.84713 | 115.91190 | 20767 ft | 447 kts | 268° |
| 2026-04-28 14:22 | -7.84861 | 115.88031 | 20367 ft | 455 kts | 268° |
| 2026-04-28 14:22 | -7.85011 | 115.84833 | 19972 ft | 454 kts | 268° |
| 2026-04-28 14:23 | -7.85158 | 115.81694 | 19580 ft | 451 kts | 269° |
| 2026-04-28 14:23 | -7.85306 | 115.78530 | 19186 ft | 449 kts | 269° |
| 2026-04-28 14:23 | -7.85450 | 115.75389 | 18792 ft | 447 kts | 269° |
| 2026-04-28 14:23 | -7.85829 | 115.72279 | 18390 ft | 447 kts | 256° |
| 2026-04-28 14:24 | -7.86870 | 115.69269 | 17866 ft | 446 kts | 251° |
| 2026-04-28 14:24 | -7.87936 | 115.66353 | 17397 ft | 443 kts | 251° |
| 2026-04-28 14:24 | -7.88998 | 115.63451 | 17034 ft | 437 kts | 250° |
| 2026-04-28 14:24 | -7.90041 | 115.60593 | 16639 ft | 435 kts | 250° |
| 2026-04-28 14:25 | -7.91087 | 115.57716 | 16238 ft | 433 kts | 250° |
| 2026-04-28 14:25 | -7.92102 | 115.54908 | 15841 ft | 430 kts | 251° |
| 2026-04-28 14:25 | -7.93127 | 115.52058 | 15436 ft | 428 kts | 250° |
| 2026-04-28 14:25 | -7.94124 | 115.49272 | 15039 ft | 425 kts | 250° |
| 2026-04-28 14:26 | -7.95122 | 115.46462 | 14637 ft | 423 kts | 250° |
| 2026-04-28 14:26 | -7.96112 | 115.43659 | 14232 ft | 421 kts | 250° |
| 2026-04-28 14:26 | -7.97076 | 115.40910 | 13832 ft | 418 kts | 250° |
| 2026-04-28 14:26 | -7.98041 | 115.38140 | 13430 ft | 415 kts | 250° |
| 2026-04-28 14:27 | -7.98986 | 115.35409 | 13030 ft | 413 kts | 250° |
| 2026-04-28 14:27 | -7.99931 | 115.32666 | 12627 ft | 411 kts | 251° |
| 2026-04-28 14:27 | -8.00864 | 115.29955 | 12233 ft | 409 kts | 251° |
| 2026-04-28 14:27 | -8.01788 | 115.27264 | 11841 ft | 408 kts | 251° |
| 2026-04-28 14:28 | -8.02709 | 115.24589 | 11451 ft | 406 kts | 251° |
| 2026-04-28 14:28 | -8.03640 | 115.21885 | 11052 ft | 404 kts | 251° |
| 2026-04-28 14:28 | -8.04564 | 115.19201 | 10654 ft | 402 kts | 251° |
| 2026-04-28 14:28 | -8.05621 | 115.16610 | 10250 ft | 399 kts | 240° |
| 2026-04-28 14:29 | -8.07109 | 115.14229 | 9857 ft | 397 kts | 236° |
| 2026-04-28 14:29 | -8.08621 | 115.11904 | 9460 ft | 395 kts | 236° |
| 2026-04-28 14:29 | -8.10115 | 115.09611 | 9066 ft | 393 kts | 236° |
| 2026-04-28 14:29 | -8.11625 | 115.07293 | 8664 ft | 390 kts | 236° |
| 2026-04-28 14:30 | -8.13108 | 115.05021 | 8265 ft | 388 kts | 236° |
| 2026-04-28 14:30 | -8.14585 | 115.02765 | 7864 ft | 386 kts | 236° |
| 2026-04-28 14:30 | -8.16077 | 115.00490 | 7458 ft | 384 kts | 236° |
| 2026-04-28 14:30 | -8.17546 | 114.98248 | 7061 ft | 383 kts | 236° |
| 2026-04-28 14:31 | -8.19016 | 114.96006 | 6665 ft | 380 kts | 236° |
| 2026-04-28 14:31 | -8.20541 | 114.93858 | 6265 ft | 377 kts | 227° |
| 2026-04-28 14:31 | -8.22621 | 114.92244 | 5879 ft | 370 kts | 206° |
| 2026-04-28 14:31 | -8.24937 | 114.91181 | 5900 ft | 370 kts | 201° |
| 2026-04-28 14:32 | -8.27335 | 114.90164 | 5943 ft | 372 kts | 201° |
| 2026-04-28 14:32 | -8.29735 | 114.89159 | 5957 ft | 372 kts | 201° |
| 2026-04-28 14:32 | -8.32124 | 114.88165 | 5961 ft | 371 kts | 201° |
| 2026-04-28 14:32 | -8.34528 | 114.87168 | 5961 ft | 371 kts | 201° |
| 2026-04-28 14:33 | -8.36924 | 114.86178 | 5955 ft | 370 kts | 201° |
| 2026-04-28 14:33 | -8.39325 | 114.85187 | 5944 ft | 370 kts | 201° |
| 2026-04-28 14:33 | -8.41727 | 114.84196 | 5938 ft | 370 kts | 200° |
| 2026-04-28 14:33 | -8.44132 | 114.83204 | 5933 ft | 370 kts | 201° |
| 2026-04-28 14:34 | -8.48894 | 114.81234 | 5910 ft | 371 kts | 201° |
| 2026-04-28 14:34 | -8.51293 | 114.80237 | 5910 ft | 371 kts | 201° |
| 2026-04-28 14:34 | -8.53758 | 114.79365 | 5899 ft | 369 kts | 189° |
| 2026-04-28 14:35 | -8.56309 | 114.79305 | 5909 ft | 365 kts | 170° |
| 2026-04-28 14:35 | -8.58851 | 114.79705 | 5921 ft | 366 kts | 170° |
| 2026-04-28 14:35 | -8.61376 | 114.80045 | 5921 ft | 366 kts | 171° |
| 2026-04-28 14:35 | -8.63931 | 114.80377 | 5921 ft | 366 kts | 171° |
| 2026-04-28 14:36 | -8.66451 | 114.80704 | 5923 ft | 366 kts | 171° |
| 2026-04-28 14:36 | -8.68989 | 114.81080 | 5919 ft | 365 kts | 165° |
| 2026-04-28 14:36 | -8.71312 | 114.82080 | 5911 ft | 360 kts | 144° |
| 2026-04-28 14:36 | -8.73097 | 114.83827 | 5917 ft | 357 kts | 125° |
| 2026-04-28 14:37 | -8.74490 | 114.85873 | 5919 ft | 356 kts | 121° |
| 2026-04-28 14:37 | -8.75834 | 114.87975 | 5916 ft | 356 kts | 121° |
| 2026-04-28 14:37 | -8.77185 | 114.90112 | 5900 ft | 356 kts | 121° |
| 2026-04-28 14:37 | -8.78502 | 114.92220 | 5910 ft | 355 kts | 118° |
| 2026-04-28 14:38 | -8.79383 | 114.94543 | 5893 ft | 353 kts | 98° |
| 2026-04-28 14:38 | -8.79349 | 114.96990 | 5889 ft | 351 kts | 78° |
| 2026-04-28 14:38 | -8.78434 | 114.99272 | 5711 ft | 347 kts | 58° |
| 2026-04-28 14:38 | -8.76859 | 115.01009 | 5214 ft | 331 kts | 40° |
| 2026-04-28 14:39 | -8.75288 | 115.02618 | 4743 ft | 313 kts | 59° |
| 2026-04-28 14:39 | -8.74529 | 115.04597 | 4270 ft | 298 kts | 83° |
| 2026-04-28 14:39 | -8.74593 | 115.06647 | 3833 ft | 287 kts | 96° |
| 2026-04-28 14:39 | -8.74734 | 115.08652 | 3681 ft | 280 kts | 91° |
| 2026-04-28 14:40 | -8.74797 | 115.10587 | 3667 ft | 269 kts | 92° |
| 2026-04-28 14:40 | -8.74967 | 115.11839 | 3653 ft | 270 kts | 107° |
| 2026-04-28 14:40 | -8.76416 | 115.13918 | 3648 ft | 275 kts | 143° |
| 2026-04-28 14:40 | -8.78171 | 115.14671 | 3649 ft | 281 kts | 169° |
| 2026-04-28 14:41 | -8.80163 | 115.14768 | 3662 ft | 283 kts | 179° |
| 2026-04-28 14:41 | -8.82155 | 115.14698 | 3664 ft | 283 kts | 180° |
| 2026-04-28 14:41 | -8.84140 | 115.14516 | 3657 ft | 286 kts | 192° |
| 2026-04-28 14:41 | -8.85923 | 115.13619 | 3651 ft | 289 kts | 219° |
| 2026-04-28 14:42 | -8.87139 | 115.12026 | 3675 ft | 291 kts | 246° |
| 2026-04-28 14:42 | -8.87568 | 115.10032 | 3639 ft | 291 kts | 269° |
| 2026-04-28 14:42 | -8.87500 | 115.08001 | 3498 ft | 285 kts | 274° |
| 2026-04-28 14:42 | -8.87396 | 115.06035 | 3328 ft | 279 kts | 272° |
| 2026-04-28 14:43 | -8.87359 | 115.04110 | 3176 ft | 270 kts | 271° |
| 2026-04-28 14:43 | -8.87335 | 115.02200 | 3042 ft | 269 kts | 271° |
| 2026-04-28 14:43 | -8.87310 | 115.00327 | 2904 ft | 258 kts | 271° |
| 2026-04-28 14:43 | -8.87285 | 114.98560 | 2895 ft | 246 kts | 271° |
| 2026-04-28 14:44 | -8.87258 | 114.96820 | 2901 ft | 246 kts | 271° |
| 2026-04-28 14:44 | -8.87230 | 114.95084 | 2904 ft | 246 kts | 271° |
| 2026-04-28 14:44 | -8.87199 | 114.93371 | 2889 ft | 236 kts | 271° |
| 2026-04-28 14:44 | -8.87170 | 114.91750 | 2913 ft | 226 kts | 271° |
| 2026-04-28 14:45 | -8.87135 | 114.90173 | 2918 ft | 227 kts | 276° |
| 2026-04-28 14:45 | -8.86607 | 114.88693 | 2885 ft | 223 kts | 311° |
| 2026-04-28 14:45 | -8.85379 | 114.87784 | 2890 ft | 217 kts | 346° |
| 2026-04-28 14:45 | -8.83894 | 114.87519 | 2913 ft | 214 kts | 358° |
| 2026-04-28 14:46 | -8.82387 | 114.87423 | 2904 ft | 213 kts | 0° |
| 2026-04-28 14:46 | -8.80907 | 114.87359 | 2897 ft | 213 kts | 1° |
| 2026-04-28 14:46 | -8.79412 | 114.87301 | 2897 ft | 213 kts | 1° |
| 2026-04-28 14:46 | -8.77953 | 114.87470 | 2889 ft | 209 kts | 22° |
| 2026-04-28 14:47 | -8.76613 | 114.88087 | 2900 ft | 207 kts | 37° |
| 2026-04-28 14:47 | -8.75721 | 114.89178 | 2884 ft | 203 kts | 72° |
| 2026-04-28 14:47 | -8.75569 | 114.90593 | 2915 ft | 203 kts | 91° |
| 2026-04-28 14:47 | -8.75647 | 114.92027 | 2914 ft | 202 kts | 92° |
| 2026-04-28 14:48 | -8.75698 | 114.93459 | 2913 ft | 202 kts | 90° |
| 2026-04-28 14:48 | -8.75699 | 114.94833 | 2898 ft | 188 kts | 89° |
| 2026-04-28 14:48 | -8.75671 | 114.96101 | 2901 ft | 179 kts | 88° |
| 2026-04-28 14:48 | -8.75628 | 114.97356 | 2913 ft | 179 kts | 88° |
| 2026-04-28 14:49 | -8.75577 | 114.98628 | 2917 ft | 180 kts | 88° |
| 2026-04-28 14:49 | -8.75524 | 114.99901 | 2806 ft | 180 kts | 87° |
| 2026-04-28 14:49 | -8.75470 | 115.01166 | 2566 ft | 179 kts | 88° |
| 2026-04-28 14:49 | -8.75418 | 115.02406 | 2326 ft | 175 kts | 88° |
| 2026-04-28 14:50 | -8.75368 | 115.03597 | 2102 ft | 168 kts | 88° |
| 2026-04-28 14:50 | -8.75321 | 115.04753 | 1892 ft | 162 kts | 88° |
| 2026-04-28 14:50 | -8.75274 | 115.05892 | 1698 ft | 162 kts | 88° |
| 2026-04-28 14:50 | -8.75228 | 115.07029 | 1492 ft | 162 kts | 88° |
| 2026-04-28 14:51 | -8.75179 | 115.08154 | 1284 ft | 161 kts | 88° |
| 2026-04-28 14:51 | -8.75125 | 115.09289 | 1079 ft | 161 kts | 88° |
| 2026-04-28 14:51 | -8.75082 | 115.10410 | 868 ft | 160 kts | 89° |
| 2026-04-28 14:51 | -8.75034 | 115.11534 | 643 ft | 160 kts | 88° |
| 2026-04-28 14:52 | -8.74994 | 115.12659 | 449 ft | 159 kts | 89° |
| 2026-04-28 14:52 | -8.74964 | 115.13781 | 264 ft | 159 kts | 89° |
| 2026-04-28 14:52 | -8.74908 | 115.14872 | 88 ft | 152 kts | 89° |
| 2026-04-28 14:52 | -8.74863 | 115.15923 | 24 ft | 141 kts | 88° |
| 2026-04-28 14:53 | -8.74836 | 115.16730 | 26 ft | 77 kts | 90° |
| 2026-04-28 14:53 | -8.74828 | 115.17042 | 26 ft | 35 kts | 87° |
| 2026-04-28 14:53 | -8.74818 | 115.17252 | 26 ft | 18 kts | 83° |
| 2026-04-28 14:53 | -8.74757 | 115.17310 | 27 ft | 12 kts | 3° |
| 2026-04-28 14:54 | -8.74675 | 115.17287 | 28 ft | 13 kts | 312° |
| 2026-04-28 14:54 | -8.74657 | 115.17194 | 27 ft | 14 kts | 268° |
| 2026-04-28 14:54 | -8.74660 | 115.17080 | 26 ft | 17 kts | 268° |
| 2026-04-28 14:54 | -8.74665 | 115.16962 | 27 ft | 10 kts | 270° |
| 2026-04-28 14:55 | -8.74638 | 115.16940 | 28 ft | 6 kts | 348° |
| 2026-04-28 14:55 | -8.74575 | 115.16933 | 29 ft | 8 kts | 356° |
| 2026-04-28 14:55 | -8.74539 | 115.16931 | 30 ft | 0 kts | 357° |